createdAt,value
2019-01-20T10:40:50.203Z,0.01
2019-01-20T10:42:50.593Z,0.15
2019-01-20T10:44:50.152Z,0.59
2019-01-20T10:46:49.881Z,0.74
2019-01-20T10:48:50.399Z,1.14
2019-01-20T10:50:49.897Z,1.19
2019-01-20T10:52:50.478Z,1.23
2019-01-20T10:54:50.061Z,1.45
2019-01-20T10:56:49.744Z,1.59
2019-01-20T10:58:50.214Z,1.40
2019-01-20T11:00:49.764Z,1.66
2019-01-20T11:02:50.255Z,1.65
2019-01-20T11:04:50.276Z,1.86
2019-01-20T11:06:49.875Z,1.94
2019-01-20T11:08:50.415Z,2.01
2019-01-20T11:10:49.871Z,2.06
2019-01-20T11:12:50.240Z,1.97
2019-01-20T11:14:50.624Z,2.03
2019-01-20T11:16:50.355Z,2.38
2019-01-20T11:18:50.687Z,2.70
2019-01-20T11:20:50.167Z,3.24
2019-01-20T11:22:50.684Z,3.21
2019-01-20T11:24:50.221Z,3.16
2019-01-20T11:26:50.431Z,2.76
2019-01-20T11:28:50.599Z,3.04
2019-01-20T11:30:50.880Z,3.03
2019-01-20T11:32:49.981Z,2.93
2019-01-20T11:34:50.595Z,3.06
2019-01-20T11:36:50.672Z,3.25
2019-01-20T11:38:50.365Z,3.65
2019-01-20T11:40:50.709Z,3.65
2019-01-20T11:42:50.355Z,3.88
2019-01-20T11:44:49.995Z,3.75
2019-01-20T11:46:50.503Z,3.92
2019-01-20T11:48:50.896Z,3.92
2019-01-20T11:50:50.515Z,3.75
2019-01-20T11:52:50.154Z,3.75
2019-01-20T11:54:50.467Z,3.97
2019-01-20T11:56:51.032Z,4.03
2019-01-20T11:58:50.442Z,4.36
2019-01-20T12:00:50.711Z,4.26
2019-01-20T12:02:50.178Z,4.48
2019-01-20T12:04:50.092Z,4.85
2019-01-20T12:06:50.302Z,5.29
2019-01-20T12:08:50.505Z,5.19
2019-01-20T12:10:50.311Z,4.99
2019-01-20T12:12:50.877Z,5.21
2019-01-20T12:14:50.340Z,5.63
2019-01-20T12:16:50.577Z,5.11
2019-01-20T12:18:50.983Z,4.89
2019-01-20T12:20:50.332Z,4.66
2019-01-20T12:22:50.775Z,4.40
2019-01-20T12:24:50.367Z,4.25
2019-01-20T12:26:50.690Z,4.15
2019-01-20T12:28:50.226Z,3.78
2019-01-20T12:30:50.630Z,3.78
2019-01-20T12:32:50.206Z,2.88
2019-01-20T12:34:49.910Z,2.35
2019-01-20T12:36:50.165Z,2.16
2019-01-20T12:38:50.556Z,2.07
2019-01-20T12:40:50.817Z,1.56
2019-01-20T12:42:50.232Z,1.08
2019-01-20T12:44:50.817Z,0.86
2019-01-20T12:46:50.125Z,0.44
2019-01-20T12:48:50.410Z,0.30
2019-01-20T12:50:50.744Z,0.12
2019-01-20T12:52:50.389Z,0.04
2019-01-20T13:28:50.859Z,0.19
2019-01-20T13:30:50.834Z,0.0
2019-01-20T13:32:50.346Z,0.0
2019-01-20T13:34:50.035Z,0.63
2019-01-20T13:36:50.356Z,0.55
2019-01-20T13:38:50.632Z,0.0
2019-01-20T13:40:50.166Z,0.0
2019-01-20T13:42:50.712Z,0.0
2019-01-20T13:44:50.151Z,0.0
2019-01-20T13:46:50.075Z,0.0
2019-01-20T13:48:50.146Z,0.0
2019-01-20T13:50:50.468Z,0.0
2019-01-20T13:52:50.889Z,0.0
2019-01-20T13:54:50.282Z,0.0
2019-01-20T13:56:50.472Z,0.0
2019-01-20T13:58:50.686Z,0.0
2019-01-20T14:00:50.885Z,0.0
2019-01-20T14:02:50.546Z,0.0
2019-01-20T14:04:50.491Z,0.0
2019-01-20T14:06:50.524Z,0.0
2019-01-20T14:08:50.145Z,0.0
2019-01-20T14:10:50.372Z,0.0
2019-01-20T14:12:50.750Z,0.0
2019-01-20T14:14:54.445Z,0.0
2019-01-20T14:16:50.336Z,0.0
